sensor_id;sensor_type;location;lat;lon;timestamp;pressure;altitude;pressure_sealevel;temperature;humidity
78675;BME280;67990;59.826;30.108;2023-06-22T00:01:31;101389.59;;;19.97;53.06
78675;BME280;67990;59.826;30.108;2023-06-22T00:03:58;101400.38;;;20.04;53.20
78675;BME280;67990;59.826;30.108;2023-06-22T00:06:45;101400.06;;;19.99;53.27
78675;BME280;67990;59.826;30.108;2023-06-22T00:12:16;101389.34;;;20.07;52.83
78675;BME280;67990;59.826;30.108;2023-06-22T00:14:43;101384.00;;;20.07;52.78
78675;BME280;67990;59.826;30.108;2023-06-22T00:17:11;101381.50;;;20.05;52.81
78675;BME280;67990;59.826;30.108;2023-06-22T00:19:38;101376.53;;;20.02;52.73
78675;BME280;67990;59.826;30.108;2023-06-22T00:22:07;101379.03;;;20.04;52.77
78675;BME280;67990;59.826;30.108;2023-06-22T00:24:35;101370.38;;;20.02;52.96
78675;BME280;67990;59.826;30.108;2023-06-22T00:27:02;101371.03;;;20.04;52.67
78675;BME280;67990;59.826;30.108;2023-06-22T00:33:08;101371.09;;;19.96;52.86
78675;BME280;67990;59.826;30.108;2023-06-22T00:35:35;101360.41;;;19.96;52.97
78675;BME280;67990;59.826;30.108;2023-06-22T00:38:04;101366.59;;;19.96;53.05
78675;BME280;67990;59.826;30.108;2023-06-22T00:40:32;101364.09;;;19.95;52.93
78675;BME280;67990;59.826;30.108;2023-06-22T00:42:59;101358.75;;;19.95;53.45
78675;BME280;67990;59.826;30.108;2023-06-22T00:45:27;101353.06;;;19.98;53.37
78675;BME280;67990;59.826;30.108;2023-06-22T00:48:13;101359.25;;;19.98;53.59
78675;BME280;67990;59.826;30.108;2023-06-22T00:50:41;101354.38;;;20.02;53.38
78675;BME280;67990;59.826;30.108;2023-06-22T00:53:28;101354.66;;;20.07;53.50
78675;BME280;67990;59.826;30.108;2023-06-22T00:56:14;101353.66;;;20.08;53.03
78675;BME280;67990;59.826;30.108;2023-06-22T00:58:45;101347.84;;;20.04;53.22
78675;BME280;67990;59.826;30.108;2023-06-22T01:01:12;101351.34;;;20.05;53.81
78675;BME280;67990;59.826;30.108;2023-06-22T01:03:40;101349.16;;;20.08;53.33
78675;BME280;67990;59.826;30.108;2023-06-22T01:06:35;101348.69;;;20.05;53.76
78675;BME280;67990;59.826;30.108;2023-06-22T01:09:26;101341.31;;;20.07;53.48
78675;BME280;67990;59.826;30.108;2023-06-22T01:12:13;101344.47;;;20.10;53.80
78675;BME280;67990;59.826;30.108;2023-06-22T01:14:45;101344.97;;;20.14;53.64
78675;BME280;67990;59.826;30.108;2023-06-22T01:17:19;101339.81;;;20.12;53.63
78675;BME280;67990;59.826;30.108;2023-06-22T01:20:05;101341.94;;;20.17;53.77
78675;BME280;67990;59.826;30.108;2023-06-22T01:22:46;101334.38;;;20.20;53.43
78675;BME280;67990;59.826;30.108;2023-06-22T01:25:21;101328.88;;;20.22;53.60
78675;BME280;67990;59.826;30.108;2023-06-22T01:27:58;101323.38;;;20.23;53.49
78675;BME280;67990;59.826;30.108;2023-06-22T01:30:31;101335.34;;;20.27;53.19
78675;BME280;67990;59.826;30.108;2023-06-22T01:33:04;101329.34;;;20.25;53.68
78675;BME280;67990;59.826;30.108;2023-06-22T01:35:32;101328.50;;;20.25;54.02
78675;BME280;67990;59.826;30.108;2023-06-22T01:38:19;101322.97;;;20.26;53.63
78675;BME280;67990;59.826;30.108;2023-06-22T01:43:53;101324.09;;;20.32;53.17
78675;BME280;67990;59.826;30.108;2023-06-22T01:46:23;101320.72;;;20.38;53.45
78675;BME280;67990;59.826;30.108;2023-06-22T01:49:08;101311.50;;;20.40;53.64
78675;BME280;67990;59.826;30.108;2023-06-22T01:54:39;101314.63;;;20.44;53.54
78675;BME280;67990;59.826;30.108;2023-06-22T01:57:26;101309.56;;;20.49;53.61
78675;BME280;67990;59.826;30.108;2023-06-22T02:00:12;101310.84;;;20.53;53.32
78675;BME280;67990;59.826;30.108;2023-06-22T02:03:03;101308.16;;;20.53;53.43
78675;BME280;67990;59.826;30.108;2023-06-22T02:05:34;101305.88;;;20.64;53.04
78675;BME280;67990;59.826;30.108;2023-06-22T02:08:25;101296.94;;;20.72;52.78
78675;BME280;67990;59.826;30.108;2023-06-22T02:10:55;101304.00;;;20.79;52.60
78675;BME280;67990;59.826;30.108;2023-06-22T02:13:25;101299.31;;;20.81;52.40
78675;BME280;67990;59.826;30.108;2023-06-22T02:15:53;101301.78;;;20.83;52.41
78675;BME280;67990;59.826;30.108;2023-06-22T02:18:22;101278.25;;;20.72;52.03
78675;BME280;67990;59.826;30.108;2023-06-22T02:20:49;101296.44;;;20.83;52.23
78675;BME280;67990;59.826;30.108;2023-06-22T02:23:16;101291.94;;;20.83;52.38
78675;BME280;67990;59.826;30.108;2023-06-22T02:25:43;101287.44;;;20.84;52.14
78675;BME280;67990;59.826;30.108;2023-06-22T02:28:29;101292.38;;;20.87;52.55
78675;BME280;67990;59.826;30.108;2023-06-22T02:30:56;101292.19;;;20.88;52.09
78675;BME280;67990;59.826;30.108;2023-06-22T02:33:44;101291.38;;;20.88;52.47
78675;BME280;67990;59.826;30.108;2023-06-22T02:36:11;101292.00;;;20.90;52.54
78675;BME280;67990;59.826;30.108;2023-06-22T02:38:57;101285.97;;;20.96;52.32
78675;BME280;67990;59.826;30.108;2023-06-22T02:44:28;101280.59;;;21.10;52.06
78675;BME280;67990;59.826;30.108;2023-06-22T02:46:55;101286.13;;;21.09;52.14
78675;BME280;67990;59.826;30.108;2023-06-22T02:49:42;101278.69;;;21.25;52.16
78675;BME280;67990;59.826;30.108;2023-06-22T02:52:11;101277.69;;;21.48;51.51
78675;BME280;67990;59.826;30.108;2023-06-22T02:54:56;101282.31;;;21.81;51.08
78675;BME280;67990;59.826;30.108;2023-06-22T02:57:23;101283.03;;;22.51;49.82
78675;BME280;67990;59.826;30.108;2023-06-22T02:59:50;101280.91;;;23.47;47.99
78675;BME280;67990;59.826;30.108;2023-06-22T03:05:23;101282.97;;;25.68;42.60
78675;BME280;67990;59.826;30.108;2023-06-22T03:10:35;101279.72;;;27.47;39.46
78675;BME280;67990;59.826;30.108;2023-06-22T03:13:03;101275.56;;;27.74;37.96
78675;BME280;67990;59.826;30.108;2023-06-22T03:18:15;101274.53;;;26.50;39.79
78675;BME280;67990;59.826;30.108;2023-06-22T03:20:44;101286.09;;;26.33;40.89
78675;BME280;67990;59.826;30.108;2023-06-22T03:23:11;101282.69;;;26.01;41.64
78675;BME280;67990;59.826;30.108;2023-06-22T03:25:57;101286.50;;;25.69;43.48
78675;BME280;67990;59.826;30.108;2023-06-22T03:28:41;101284.81;;;24.99;43.87
78675;BME280;67990;59.826;30.108;2023-06-22T03:31:08;101296.31;;;24.69;45.34
78675;BME280;67990;59.826;30.108;2023-06-22T03:33:57;101282.38;;;23.82;47.37
78675;BME280;67990;59.826;30.108;2023-06-22T03:36:25;101286.34;;;23.93;47.16
78675;BME280;67990;59.826;30.108;2023-06-22T03:44:42;101271.25;;;23.85;48.60
78675;BME280;67990;59.826;30.108;2023-06-22T03:47:28;101269.44;;;24.69;47.03
78675;BME280;67990;59.826;30.108;2023-06-22T03:49:57;101265.00;;;25.87;44.44
78675;BME280;67990;59.826;30.108;2023-06-22T03:52:25;101251.75;;;27.41;40.53
78675;BME280;67990;59.826;30.108;2023-06-22T03:54:53;101259.75;;;28.74;37.53
78675;BME280;67990;59.826;30.108;2023-06-22T03:57:20;101258.72;;;28.64;37.56
78675;BME280;67990;59.826;30.108;2023-06-22T04:00:06;101250.09;;;28.16;36.51
78675;BME280;67990;59.826;30.108;2023-06-22T04:02:38;101252.78;;;28.04;36.99
78675;BME280;67990;59.826;30.108;2023-06-22T04:05:06;101262.19;;;28.25;36.38
78675;BME280;67990;59.826;30.108;2023-06-22T04:07:53;101269.00;;;28.16;36.72
78675;BME280;67990;59.826;30.108;2023-06-22T04:10:21;101277.28;;;28.72;36.56
78675;BME280;67990;59.826;30.108;2023-06-22T04:12:47;101280.88;;;28.89;36.77
78675;BME280;67990;59.826;30.108;2023-06-22T04:15:15;101280.16;;;28.54;37.88
78675;BME280;67990;59.826;30.108;2023-06-22T04:18:00;101276.16;;;28.22;39.44
78675;BME280;67990;59.826;30.108;2023-06-22T04:20:27;101269.00;;;27.93;39.47
78675;BME280;67990;59.826;30.108;2023-06-22T04:22:56;101267.78;;;27.66;40.27
78675;BME280;67990;59.826;30.108;2023-06-22T04:25:23;101272.84;;;28.66;37.26
78675;BME280;67990;59.826;30.108;2023-06-22T04:27:50;101261.06;;;29.89;33.64
78675;BME280;67990;59.826;30.108;2023-06-22T04:30:17;101265.06;;;31.27;31.44
78675;BME280;67990;59.826;30.108;2023-06-22T04:32:45;101260.41;;;32.27;30.43
78675;BME280;67990;59.826;30.108;2023-06-22T04:35:30;101267.66;;;33.40;28.79
78675;BME280;67990;59.826;30.108;2023-06-22T04:40:44;101254.88;;;34.79;25.47
78675;BME280;67990;59.826;30.108;2023-06-22T04:43:11;101246.59;;;35.38;24.06
78675;BME280;67990;59.826;30.108;2023-06-22T04:45:38;101252.69;;;35.92;25.08
78675;BME280;67990;59.826;30.108;2023-06-22T04:48:06;101243.97;;;36.42;23.43
78675;BME280;67990;59.826;30.108;2023-06-22T04:50:53;101245.38;;;37.37;23.41
78675;BME280;67990;59.826;30.108;2023-06-22T04:53:21;101236.59;;;37.85;21.63
78675;BME280;67990;59.826;30.108;2023-06-22T04:56:07;101241.06;;;37.81;21.52
78675;BME280;67990;59.826;30.108;2023-06-22T04:58:34;101238.38;;;38.08;22.33
78675;BME280;67990;59.826;30.108;2023-06-22T05:01:02;101231.56;;;38.06;20.55
78675;BME280;67990;59.826;30.108;2023-06-22T05:03:29;101237.88;;;38.47;20.27
78675;BME280;67990;59.826;30.108;2023-06-22T05:05:56;101230.78;;;37.23;20.54
78675;BME280;67990;59.826;30.108;2023-06-22T05:08:25;101235.34;;;35.78;23.22
78675;BME280;67990;59.826;30.108;2023-06-22T05:10:54;101235.94;;;34.29;25.13
78675;BME280;67990;59.826;30.108;2023-06-22T05:13:21;101238.53;;;33.40;26.02
78675;BME280;67990;59.826;30.108;2023-06-22T05:18:54;101233.72;;;35.43;24.59
78675;BME280;67990;59.826;30.108;2023-06-22T05:21:22;101219.47;;;36.50;23.12
78675;BME280;67990;59.826;30.108;2023-06-22T05:24:10;101218.53;;;36.60;21.71
78675;BME280;67990;59.826;30.108;2023-06-22T05:26:37;101208.50;;;37.61;20.88
78675;BME280;67990;59.826;30.108;2023-06-22T05:29:04;101207.13;;;37.77;21.38
78675;BME280;67990;59.826;30.108;2023-06-22T05:31:51;101205.97;;;37.65;21.05
78675;BME280;67990;59.826;30.108;2023-06-22T05:34:18;101193.94;;;38.47;20.20
78675;BME280;67990;59.826;30.108;2023-06-22T05:39:50;101192.69;;;39.46;19.55
78675;BME280;67990;59.826;30.108;2023-06-22T05:45:03;101194.84;;;39.58;18.96
78675;BME280;67990;59.826;30.108;2023-06-22T05:48:08;101195.91;;;39.26;19.26
78675;BME280;67990;59.826;30.108;2023-06-22T05:53:21;101173.31;;;37.50;21.07
78675;BME280;67990;59.826;30.108;2023-06-22T05:55:50;101182.63;;;38.84;19.99
78675;BME280;67990;59.826;30.108;2023-06-22T05:58:36;101179.66;;;39.91;19.24
78675;BME280;67990;59.826;30.108;2023-06-22T06:01:03;101173.22;;;40.77;18.38
78675;BME280;67990;59.826;30.108;2023-06-22T06:03:30;101166.78;;;40.17;18.80
78675;BME280;67990;59.826;30.108;2023-06-22T06:05:57;101164.97;;;40.85;17.70
78675;BME280;67990;59.826;30.108;2023-06-22T06:08:25;101167.09;;;40.88;17.27
78675;BME280;67990;59.826;30.108;2023-06-22T06:10:53;101154.13;;;40.80;17.70
78675;BME280;67990;59.826;30.108;2023-06-22T06:13:20;101154.56;;;40.48;17.64
78675;BME280;67990;59.826;30.108;2023-06-22T06:15:48;101165.47;;;40.62;18.13
78675;BME280;67990;59.826;30.108;2023-06-22T06:18:17;101153.75;;;40.39;18.02
78675;BME280;67990;59.826;30.108;2023-06-22T06:20:44;101133.56;;;40.13;18.27
78675;BME280;67990;59.826;30.108;2023-06-22T06:23:11;101154.88;;;40.98;18.57
78675;BME280;67990;59.826;30.108;2023-06-22T06:25:38;101150.69;;;40.58;18.23
78675;BME280;67990;59.826;30.108;2023-06-22T06:28:25;101138.16;;;39.26;18.98
78675;BME280;67990;59.826;30.108;2023-06-22T06:30:53;101140.09;;;38.46;20.10
78675;BME280;67990;59.826;30.108;2023-06-22T06:33:20;101128.91;;;39.22;19.66
78675;BME280;67990;59.826;30.108;2023-06-22T06:36:05;101133.56;;;40.13;19.59
78675;BME280;67990;59.826;30.108;2023-06-22T06:38:33;101124.06;;;40.36;18.62
78675;BME280;67990;59.826;30.108;2023-06-22T06:41:20;101121.41;;;41.33;17.74
78675;BME280;67990;59.826;30.108;2023-06-22T06:43:49;101119.59;;;40.66;17.11
78675;BME280;67990;59.826;30.108;2023-06-22T06:46:51;101111.09;;;42.26;17.20
78675;BME280;67990;59.826;30.108;2023-06-22T06:49:20;101104.47;;;42.80;16.17
78675;BME280;67990;59.826;30.108;2023-06-22T06:52:24;101105.59;;;41.97;16.45
78675;BME280;67990;59.826;30.108;2023-06-22T06:54:51;101106.56;;;42.21;16.02
78675;BME280;67990;59.826;30.108;2023-06-22T06:57:18;101095.94;;;42.73;15.85
78675;BME280;67990;59.826;30.108;2023-06-22T06:59:47;101095.66;;;43.19;15.81
78675;BME280;67990;59.826;30.108;2023-06-22T07:02:14;101099.44;;;42.62;16.51
78675;BME280;67990;59.826;30.108;2023-06-22T07:05:00;101096.34;;;42.63;16.30
78675;BME280;67990;59.826;30.108;2023-06-22T07:07:28;101096.47;;;43.20;15.34
78675;BME280;67990;59.826;30.108;2023-06-22T07:10:14;101094.91;;;43.55;15.81
78675;BME280;67990;59.826;30.108;2023-06-22T07:12:42;101092.13;;;43.43;15.01
78675;BME280;67990;59.826;30.108;2023-06-22T07:15:28;101095.28;;;42.76;16.67
78675;BME280;67990;59.826;30.108;2023-06-22T07:18:14;101089.56;;;42.93;15.88
78675;BME280;67990;59.826;30.108;2023-06-22T07:20:41;101090.44;;;41.28;16.88
78675;BME280;67990;59.826;30.108;2023-06-22T07:23:27;101090.09;;;39.85;18.65
78675;BME280;67990;59.826;30.108;2023-06-22T07:25:54;101097.19;;;38.72;20.24
78675;BME280;67990;59.826;30.108;2023-06-22T07:28:21;101081.06;;;39.62;19.53
78675;BME280;67990;59.826;30.108;2023-06-22T07:31:07;101078.38;;;39.71;18.93
78675;BME280;67990;59.826;30.108;2023-06-22T07:33:34;101074.88;;;39.48;19.21
78675;BME280;67990;59.826;30.108;2023-06-22T07:36:01;101083.81;;;40.10;18.80
78675;BME280;67990;59.826;30.108;2023-06-22T07:41:38;101069.47;;;41.44;18.74
78675;BME280;67990;59.826;30.108;2023-06-22T07:47:11;101065.94;;;41.26;17.50
78675;BME280;67990;59.826;30.108;2023-06-22T07:49:38;101066.47;;;41.57;17.22
78675;BME280;67990;59.826;30.108;2023-06-22T07:52:06;101056.44;;;41.53;17.22
78675;BME280;67990;59.826;30.108;2023-06-22T07:54:33;101056.81;;;41.72;17.01
78675;BME280;67990;59.826;30.108;2023-06-22T07:57:00;101051.16;;;41.97;17.40
78675;BME280;67990;59.826;30.108;2023-06-22T07:59:27;101059.41;;;40.68;17.87
78675;BME280;67990;59.826;30.108;2023-06-22T08:02:15;101057.97;;;40.45;18.33
78675;BME280;67990;59.826;30.108;2023-06-22T08:04:42;101056.13;;;40.91;17.81
78675;BME280;67990;59.826;30.108;2023-06-22T08:07:28;101053.56;;;40.18;18.36
78675;BME280;67990;59.826;30.108;2023-06-22T08:09:58;101043.34;;;38.93;19.00
78675;BME280;67990;59.826;30.108;2023-06-22T08:12:25;101043.22;;;38.76;20.04
78675;BME280;67990;59.826;30.108;2023-06-22T08:15:11;101044.94;;;39.47;20.42
78675;BME280;67990;59.826;30.108;2023-06-22T08:18:17;101041.91;;;40.64;19.69
78675;BME280;67990;59.826;30.108;2023-06-22T08:20:44;101035.25;;;40.82;18.36
78675;BME280;67990;59.826;30.108;2023-06-22T08:23:11;101031.47;;;40.95;18.86
78675;BME280;67990;59.826;30.108;2023-06-22T08:26:15;101033.19;;;39.72;18.91
78675;BME280;67990;59.826;30.108;2023-06-22T08:29:00;101022.03;;;39.29;19.56
78675;BME280;67990;59.826;30.108;2023-06-22T08:31:27;101022.75;;;38.82;20.77
78675;BME280;67990;59.826;30.108;2023-06-22T08:33:56;101021.69;;;39.61;20.42
78675;BME280;67990;59.826;30.108;2023-06-22T08:36:41;101013.84;;;39.07;20.07
78675;BME280;67990;59.826;30.108;2023-06-22T08:39:10;101019.59;;;38.97;20.22
78675;BME280;67990;59.826;30.108;2023-06-22T08:41:55;101012.44;;;39.57;19.58
78675;BME280;67990;59.826;30.108;2023-06-22T08:47:27;100997.69;;;38.84;19.24
78675;BME280;67990;59.826;30.108;2023-06-22T08:50:13;101006.63;;;38.67;19.46
78675;BME280;67990;59.826;30.108;2023-06-22T08:52:41;101002.81;;;38.77;19.37
78675;BME280;67990;59.826;30.108;2023-06-22T08:55:08;100998.16;;;38.55;19.08
78675;BME280;67990;59.826;30.108;2023-06-22T08:57:36;101009.38;;;38.45;19.33
78675;BME280;67990;59.826;30.108;2023-06-22T09:00:06;101012.09;;;37.47;20.61
78675;BME280;67990;59.826;30.108;2023-06-22T09:02:41;101004.00;;;38.04;20.24
78675;BME280;67990;59.826;30.108;2023-06-22T09:05:09;101008.59;;;38.31;20.11
78675;BME280;67990;59.826;30.108;2023-06-22T09:07:37;101000.75;;;38.60;19.55
78675;BME280;67990;59.826;30.108;2023-06-22T09:10:06;101002.22;;;37.86;20.42
78675;BME280;67990;59.826;30.108;2023-06-22T09:15:19;100994.69;;;36.97;21.85
78675;BME280;67990;59.826;30.108;2023-06-22T09:17:46;100995.94;;;36.73;21.82
78675;BME280;67990;59.826;30.108;2023-06-22T09:20:13;100995.25;;;36.30;22.77
78675;BME280;67990;59.826;30.108;2023-06-22T09:22:42;100994.44;;;35.93;23.71
78675;BME280;67990;59.826;30.108;2023-06-22T09:25:10;100983.88;;;36.23;23.64
78675;BME280;67990;59.826;30.108;2023-06-22T09:27:37;100982.88;;;36.33;23.41
78675;BME280;67990;59.826;30.108;2023-06-22T09:30:22;100976.59;;;36.32;22.46
78675;BME280;67990;59.826;30.108;2023-06-22T09:32:49;100977.00;;;36.26;23.11
78675;BME280;67990;59.826;30.108;2023-06-22T09:35:18;100964.94;;;36.59;22.44
78675;BME280;67990;59.826;30.108;2023-06-22T09:40:32;100956.44;;;36.60;23.12
78675;BME280;67990;59.826;30.108;2023-06-22T09:43:01;100955.88;;;36.77;24.26
78675;BME280;67990;59.826;30.108;2023-06-22T09:45:28;100964.22;;;37.12;21.14
78675;BME280;67990;59.826;30.108;2023-06-22T09:47:55;100959.84;;;36.66;21.65
78675;BME280;67990;59.826;30.108;2023-06-22T09:50:22;100949.06;;;36.74;22.21
78675;BME280;67990;59.826;30.108;2023-06-22T09:52:51;100942.34;;;36.67;23.88
78675;BME280;67990;59.826;30.108;2023-06-22T09:55:20;100944.88;;;37.22;21.08
78675;BME280;67990;59.826;30.108;2023-06-22T09:57:47;100936.53;;;36.23;22.08
78675;BME280;67990;59.826;30.108;2023-06-22T10:00:17;100930.09;;;35.95;22.52
78675;BME280;67990;59.826;30.108;2023-06-22T10:03:03;100925.56;;;35.02;23.39
78675;BME280;67990;59.826;30.108;2023-06-22T10:08:17;100916.66;;;33.95;24.21
78675;BME280;67990;59.826;30.108;2023-06-22T10:10:44;100916.22;;;33.68;25.04
78675;BME280;67990;59.826;30.108;2023-06-22T10:13:11;100917.78;;;33.31;25.70
78675;BME280;67990;59.826;30.108;2023-06-22T10:15:38;100911.66;;;32.85;26.38
78675;BME280;67990;59.826;30.108;2023-06-22T10:18:05;100923.09;;;32.77;26.49
78675;BME280;67990;59.826;30.108;2023-06-22T10:20:33;100921.19;;;32.73;27.23
78675;BME280;67990;59.826;30.108;2023-06-22T10:23:01;100916.88;;;32.27;28.31
78675;BME280;67990;59.826;30.108;2023-06-22T10:25:30;100913.34;;;32.51;28.76
78675;BME280;67990;59.826;30.108;2023-06-22T10:27:57;100904.63;;;32.44;29.11
78675;BME280;67990;59.826;30.108;2023-06-22T10:30:24;100899.59;;;33.06;26.84
78675;BME280;67990;59.826;30.108;2023-06-22T10:32:51;100898.00;;;33.05;26.70
78675;BME280;67990;59.826;30.108;2023-06-22T10:35:37;100885.84;;;32.08;29.19
78675;BME280;67990;59.826;30.108;2023-06-22T10:38:05;100886.41;;;32.15;29.41
78675;BME280;67990;59.826;30.108;2023-06-22T10:40:33;100880.84;;;33.00;26.25
78675;BME280;67990;59.826;30.108;2023-06-22T10:43:00;100884.50;;;32.30;28.08
78675;BME280;67990;59.826;30.108;2023-06-22T10:45:27;100884.47;;;32.65;29.01
78675;BME280;67990;59.826;30.108;2023-06-22T10:47:56;100877.41;;;32.44;28.31
78675;BME280;67990;59.826;30.108;2023-06-22T10:50:59;100877.56;;;33.03;27.73
78675;BME280;67990;59.826;30.108;2023-06-22T10:53:26;100867.00;;;33.50;26.17
78675;BME280;67990;59.826;30.108;2023-06-22T10:55:55;100870.84;;;32.75;27.87
78675;BME280;67990;59.826;30.108;2023-06-22T10:58:41;100867.13;;;33.35;26.78
78675;BME280;67990;59.826;30.108;2023-06-22T11:01:08;100873.28;;;32.82;28.40
78675;BME280;67990;59.826;30.108;2023-06-22T11:03:36;100873.50;;;33.00;28.22
78675;BME280;67990;59.826;30.108;2023-06-22T11:06:21;100871.91;;;32.89;29.44
78675;BME280;67990;59.826;30.108;2023-06-22T11:08:48;100864.56;;;32.80;29.88
78675;BME280;67990;59.826;30.108;2023-06-22T11:11:16;100871.13;;;32.69;30.45
78675;BME280;67990;59.826;30.108;2023-06-22T11:16:29;100861.56;;;32.81;30.09
78675;BME280;67990;59.826;30.108;2023-06-22T11:18:57;100857.78;;;32.67;30.37
78675;BME280;67990;59.826;30.108;2023-06-22T11:21:24;100869.25;;;31.89;30.80
78675;BME280;67990;59.826;30.108;2023-06-22T11:24:10;100861.09;;;32.04;32.07
78675;BME280;67990;59.826;30.108;2023-06-22T11:26:39;100855.34;;;31.61;31.71
78675;BME280;67990;59.826;30.108;2023-06-22T11:29:06;100853.75;;;32.05;30.58
78675;BME280;67990;59.826;30.108;2023-06-22T11:31:34;100855.94;;;32.18;29.01
78675;BME280;67990;59.826;30.108;2023-06-22T11:34:19;100850.78;;;31.91;30.01
78675;BME280;67990;59.826;30.108;2023-06-22T11:36:46;100859.28;;;31.23;31.50
78675;BME280;67990;59.826;30.108;2023-06-22T11:39:14;100855.53;;;31.29;32.46
78675;BME280;67990;59.826;30.108;2023-06-22T11:41:42;100852.81;;;31.29;32.89
78675;BME280;67990;59.826;30.108;2023-06-22T11:46:55;100839.00;;;31.56;32.16
78675;BME280;67990;59.826;30.108;2023-06-22T11:49:22;100846.59;;;31.44;33.02
78675;BME280;67990;59.826;30.108;2023-06-22T11:51:49;100843.56;;;31.25;33.65
78675;BME280;67990;59.826;30.108;2023-06-22T11:54:17;100838.72;;;31.42;32.71
78675;BME280;67990;59.826;30.108;2023-06-22T11:56:45;100836.78;;;31.38;33.43
78675;BME280;67990;59.826;30.108;2023-06-22T11:59:12;100835.31;;;31.10;33.51
78675;BME280;67990;59.826;30.108;2023-06-22T12:01:39;100834.25;;;31.16;33.12
78675;BME280;67990;59.826;30.108;2023-06-22T12:04:07;100841.28;;;30.61;34.28
78675;BME280;67990;59.826;30.108;2023-06-22T12:06:37;100834.91;;;30.35;34.75
78675;BME280;67990;59.826;30.108;2023-06-22T12:09:07;100831.66;;;30.06;35.99
78675;BME280;67990;59.826;30.108;2023-06-22T12:11:35;100835.31;;;30.17;36.23
78675;BME280;67990;59.826;30.108;2023-06-22T12:14:04;100834.53;;;30.22;36.19
78675;BME280;67990;59.826;30.108;2023-06-22T12:16:32;100829.50;;;30.03;36.63
78675;BME280;67990;59.826;30.108;2023-06-22T12:18:59;100839.41;;;30.20;36.51
78675;BME280;67990;59.826;30.108;2023-06-22T12:21:26;100839.34;;;30.14;36.61
78675;BME280;67990;59.826;30.108;2023-06-22T12:23:54;100837.47;;;30.15;36.15
78675;BME280;67990;59.826;30.108;2023-06-22T12:26:22;100833.47;;;29.96;36.71
78675;BME280;67990;59.826;30.108;2023-06-22T12:28:49;100833.16;;;29.87;37.35
78675;BME280;67990;59.826;30.108;2023-06-22T12:31:17;100833.69;;;29.58;37.26
78675;BME280;67990;59.826;30.108;2023-06-22T12:33:44;100830.47;;;29.61;36.56
78675;BME280;67990;59.826;30.108;2023-06-22T12:36:12;100827.69;;;29.56;37.53
78675;BME280;67990;59.826;30.108;2023-06-22T12:38:56;100827.94;;;29.54;37.64
78675;BME280;67990;59.826;30.108;2023-06-22T12:41:42;100832.38;;;29.39;37.86
78675;BME280;67990;59.826;30.108;2023-06-22T12:44:09;100834.53;;;29.15;37.88
78675;BME280;67990;59.826;30.108;2023-06-22T12:46:38;100834.28;;;29.17;37.54
78675;BME280;67990;59.826;30.108;2023-06-22T12:49:05;100849.41;;;28.75;38.16
78675;BME280;67990;59.826;30.108;2023-06-22T12:51:33;100858.66;;;28.79;38.04
78675;BME280;67990;59.826;30.108;2023-06-22T12:54:00;100861.81;;;28.38;38.64
78675;BME280;67990;59.826;30.108;2023-06-22T12:56:28;100864.94;;;27.97;39.50
78675;BME280;67990;59.826;30.108;2023-06-22T12:58:55;100869.19;;;27.65;40.77
78675;BME280;67990;59.826;30.108;2023-06-22T13:01:23;100868.75;;;27.56;41.03
78675;BME280;67990;59.826;30.108;2023-06-22T13:04:10;100866.50;;;27.37;41.82
78675;BME280;67990;59.826;30.108;2023-06-22T13:06:40;100871.69;;;27.27;42.76
78675;BME280;67990;59.826;30.108;2023-06-22T13:09:08;100885.41;;;27.25;43.91
78675;BME280;67990;59.826;30.108;2023-06-22T13:11:36;100883.16;;;27.34;43.78
78675;BME280;67990;59.826;30.108;2023-06-22T13:14:03;100882.72;;;27.14;43.67
78675;BME280;67990;59.826;30.108;2023-06-22T13:16:30;100888.72;;;27.04;43.56
78675;BME280;67990;59.826;30.108;2023-06-22T13:18:57;100891.28;;;27.11;43.19
78675;BME280;67990;59.826;30.108;2023-06-22T13:21:26;100890.38;;;27.05;43.26
78675;BME280;67990;59.826;30.108;2023-06-22T13:23:54;100888.47;;;27.06;42.96
78675;BME280;67990;59.826;30.108;2023-06-22T13:26:39;100887.78;;;27.10;43.63
78675;BME280;67990;59.826;30.108;2023-06-22T13:31:52;100900.69;;;27.20;44.40
78675;BME280;67990;59.826;30.108;2023-06-22T13:34:36;100908.53;;;27.10;45.66
78675;BME280;67990;59.826;30.108;2023-06-22T13:40:09;100916.78;;;26.69;46.67
78675;BME280;67990;59.826;30.108;2023-06-22T13:42:37;100918.19;;;26.71;47.69
78675;BME280;67990;59.826;30.108;2023-06-22T13:45:07;100922.75;;;26.82;48.02
78675;BME280;67990;59.826;30.108;2023-06-22T13:47:37;100930.84;;;26.82;47.76
78675;BME280;67990;59.826;30.108;2023-06-22T13:50:05;100927.88;;;26.49;47.60
78675;BME280;67990;59.826;30.108;2023-06-22T13:52:34;100925.97;;;26.27;49.33
78675;BME280;67990;59.826;30.108;2023-06-22T13:55:20;100930.06;;;26.29;49.44
78675;BME280;67990;59.826;30.108;2023-06-22T13:57:47;100937.75;;;26.14;49.78
78675;BME280;67990;59.826;30.108;2023-06-22T14:00:15;100940.31;;;26.09;49.91
78675;BME280;67990;59.826;30.108;2023-06-22T14:02:44;100941.81;;;25.94;49.85
78675;BME280;67990;59.826;30.108;2023-06-22T14:05:11;100939.19;;;26.17;49.81
78675;BME280;67990;59.826;30.108;2023-06-22T14:07:58;100943.41;;;26.13;50.16
78675;BME280;67990;59.826;30.108;2023-06-22T14:10:25;100941.16;;;26.10;49.71
78675;BME280;67990;59.826;30.108;2023-06-22T14:12:51;100935.25;;;26.01;50.19
78675;BME280;67990;59.826;30.108;2023-06-22T14:15:19;100930.88;;;25.88;49.94
78675;BME280;67990;59.826;30.108;2023-06-22T14:17:46;100930.84;;;26.07;49.25
78675;BME280;67990;59.826;30.108;2023-06-22T14:20:14;100924.25;;;26.03;49.15